Time;durP1;ratioP1;P1;durP2;ratioP2;P2;SDS_P1;SDS_P2;PMS_P1;PMS_P2;Temp;Humidity;BMP_temperature;BMP_pressure;BME280_temperature;BME280_humidity;BME280_pressure;Samples;Min_cycle;Max_cycle;Signal;HPM_P1;HPM_P2
2022/09/02 00:04:21;;;;;;;;;;;;;;;17.51;46.54102;101913.1;;;;-75
2022/09/02 00:07:23;;;;;;;1.8;0.8;;;;;;;;;;;;;-73
2022/09/02 00:09:19;;;;;;;;;;;;;;;17.47;46.63965;101910.4;;;;-76
2022/09/02 00:14:22;;;;;;;;;;;;;;;17.43;46.76074;101901.7;;;;-75
2022/09/02 00:19:20;;;;;;;;;;;;;;;17.39;46.7207;101901;;;;-75
2022/09/02 00:24:18;;;;;;;;;;;;;;;17.33;46.80664;101899.5;;;;-75
2022/09/02 00:29:18;;;;;;;;;;;;;;;17.26;46.65137;101894.3;;;;-75
2022/09/02 00:34:17;;;;;;;;;;;;;;;17.26;47.03711;101898;;;;-74
2022/09/02 00:37:24;;;;;;;1.6;0.8;;;;;;;;;;;;;-74
2022/09/02 00:39:18;;;;;;;;;;;;;;;17.22;47.11328;101899.3;;;;-75
2022/09/02 00:44:18;;;;;;;;;;;;;;;17.18;46.92773;101889.6;;;;-75
2022/09/02 00:49:22;;;;;;;;;;;;;;;17.17;47.07324;101890;;;;-74
2022/09/02 00:54:18;;;;;;;;;;;;;;;17.15;46.73047;101885.2;;;;-75
2022/09/02 00:59:23;;;;;;;;;;;;;;;17.1;46.8623;101878.3;;;;-75
2022/09/02 01:04:18;;;;;;;;;;;;;;;17.07;47.13086;101873.6;;;;-75
2022/09/02 01:07:26;;;;;;;2.1;0.8;;;;;;;;;;;;;-75
2022/09/02 01:09:19;;;;;;;;;;;;;;;17.03;46.94531;101867.1;;;;-75
2022/09/02 01:14:18;;;;;;;;;;;;;;;16.99;46.84961;101865;;;;-75
2022/09/02 01:19:21;;;;;;;;;;;;;;;16.97;46.93848;101864.3;;;;-73
2022/09/02 01:24:18;;;;;;;;;;;;;;;16.91;47.24902;101862.6;;;;-76
2022/09/02 01:29:19;;;;;;;;;;;;;;;16.88;46.89551;101859.4;;;;-76
2022/09/02 01:34:17;;;;;;;;;;;;;;;16.83;47.30957;101858.5;;;;-74
2022/09/02 01:37:28;;;;;;;2;0.9;;;;;;;;;;;;;-75
2022/09/02 01:39:17;;;;;;;;;;;;;;;16.79;46.96484;101850.6;;;;-75
2022/09/02 01:44:18;;;;;;;;;;;;;;;16.76;47.3125;101843.6;;;;-75
2022/09/02 01:49:17;;;;;;;;;;;;;;;16.73;47.32031;101844.8;;;;-75
2022/09/02 01:54:17;;;;;;;;;;;;;;;16.7;47.29492;101843.5;;;;-74
2022/09/02 01:59:19;;;;;;;;;;;;;;;16.67;47.31543;101841.4;;;;-75
2022/09/02 02:04:18;;;;;;;;;;;;;;;16.63;47.10645;101838.7;;;;-74
2022/09/02 02:07:30;;;;;;;1.6;0.8;;;;;;;;;;;;;-74
2022/09/02 02:09:18;;;;;;;;;;;;;;;16.61;47.19531;101838.5;;;;-75
2022/09/02 02:14:18;;;;;;;;;;;;;;;16.57;47.50684;101835.2;;;;-74
2022/09/02 02:19:17;;;;;;;;;;;;;;;16.53;47.2998;101835.6;;;;-75
2022/09/02 02:24:17;;;;;;;;;;;;;;;16.48;47.5332;101837.2;;;;-75
2022/09/02 02:29:17;;;;;;;;;;;;;;;16.41;47.81934;101821.4;;;;-73
2022/09/02 02:34:18;;;;;;;;;;;;;;;16.38;47.51074;101828.3;;;;-73
2022/09/02 02:37:32;;;;;;;3.1;0.9;;;;;;;;;;;;;-74
2022/09/02 02:39:17;;;;;;;;;;;;;;;16.35;47.42773;101823.8;;;;-74
2022/09/02 02:44:18;;;;;;;;;;;;;;;16.3;47.53613;101825.8;;;;-75
2022/09/02 02:49:17;;;;;;;;;;;;;;;16.25;47.74609;101820.1;;;;-75
2022/09/02 02:54:18;;;;;;;;;;;;;;;16.22;47.56152;101823.8;;;;-73
2022/09/02 02:59:17;;;;;;;;;;;;;;;16.2;47.6709;101820.8;;;;-73
2022/09/02 03:04:17;;;;;;;;;;;;;;;16.16;47.91602;101817.3;;;;-75
2022/09/02 03:07:33;;;;;;;2.9;0.8;;;;;;;;;;;;;-74
2022/09/02 03:09:19;;;;;;;;;;;;;;;16.11;47.99023;101812.9;;;;-74
2022/09/02 03:14:18;;;;;;;;;;;;;;;16.04;47.99414;101807.8;;;;-75
2022/09/02 03:19:17;;;;;;;;;;;;;;;16.02;48.07129;101810.9;;;;-74
2022/09/02 03:24:17;;;;;;;;;;;;;;;15.99;48.14746;101809.8;;;;-74
2022/09/02 03:29:17;;;;;;;;;;;;;;;15.95;48.14355;101805.3;;;;-73
2022/09/02 03:34:18;;;;;;;;;;;;;;;15.9;48.46387;101797;;;;-75
2022/09/02 03:37:35;;;;;;;2.3;0.9;;;;;;;;;;;;;-74
2022/09/02 03:39:19;;;;;;;;;;;;;;;15.85;48.50586;101786.3;;;;-75
2022/09/02 03:44:18;;;;;;;;;;;;;;;15.84;48.3457;101789.3;;;;-73
2022/09/02 03:49:17;;;;;;;;;;;;;;;15.79;48.22656;101785.6;;;;-74
2022/09/02 03:54:17;;;;;;;;;;;;;;;15.75;48.49316;101784.2;;;;-75
2022/09/02 03:59:18;;;;;;;;;;;;;;;15.72;48.5127;101780.4;;;;-75
2022/09/02 04:04:17;;;;;;;;;;;;;;;15.7;48.29492;101779.3;;;;-75
2022/09/02 04:07:36;;;;;;;1.2;0.8;;;;;;;;;;;;;-75
2022/09/02 04:09:17;;;;;;;;;;;;;;;15.65;48.36914;101772.3;;;;-76
2022/09/02 04:14:18;;;;;;;;;;;;;;;15.63;48.41309;101771.4;;;;-75
2022/09/02 04:19:17;;;;;;;;;;;;;;;15.58;48.55371;101771.3;;;;-74
2022/09/02 04:24:18;;;;;;;;;;;;;;;15.54;48.73047;101769.9;;;;-74
2022/09/02 04:29:17;;;;;;;;;;;;;;;15.49;48.59961;101767.9;;;;-73
2022/09/02 04:34:17;;;;;;;;;;;;;;;15.47;48.74512;101764.2;;;;-75
2022/09/02 04:37:38;;;;;;;1.4;0.8;;;;;;;;;;;;;-74
2022/09/02 04:39:17;;;;;;;;;;;;;;;15.45;48.81055;101766.2;;;;-74
2022/09/02 04:44:17;;;;;;;;;;;;;;;15.42;48.77344;101763.3;;;;-76
2022/09/02 04:49:17;;;;;;;;;;;;;;;15.41;48.86328;101763.8;;;;-76
2022/09/02 04:54:17;;;;;;;;;;;;;;;15.38;48.76953;101762.7;;;;-75
2022/09/02 04:59:19;;;;;;;;;;;;;;;15.36;48.86914;101764.3;;;;-75
2022/09/02 05:04:17;;;;;;;;;;;;;;;15.36;49.0498;101761.4;;;;-74
2022/09/02 05:07:39;;;;;;;1.9;0.9;;;;;;;;;;;;;-74
2022/09/02 05:09:17;;;;;;;;;;;;;;;15.35;49.22852;101763.2;;;;-73
2022/09/02 05:14:19;;;;;;;;;;;;;;;15.36;48.95996;101759.4;;;;-75
2022/09/02 05:19:18;;;;;;;;;;;;;;;15.36;49.36621;101760.3;;;;-76
2022/09/02 05:24:17;;;;;;;;;;;;;;;15.38;49.66113;101751.3;;;;-75
2022/09/02 05:29:19;;;;;;;;;;;;;;;15.41;49.21289;101748.3;;;;-75
2022/09/02 05:34:17;;;;;;;;;;;;;;;15.45;49.55566;101753;;;;-75
2022/09/02 05:37:41;;;;;;;1.9;0.9;;;;;;;;;;;;;-74
2022/09/02 05:39:17;;;;;;;;;;;;;;;15.54;49.15918;101752.5;;;;-76
2022/09/02 05:44:18;;;;;;;;;;;;;;;15.6;49.18945;101752.8;;;;-75
2022/09/02 05:49:21;;;;;;;;;;;;;;;15.67;48.98145;101754.9;;;;-75
2022/09/02 05:54:19;;;;;;;;;;;;;;;15.74;49.50977;101759;;;;-75
2022/09/02 05:59:19;;;;;;;;;;;;;;;15.85;49.16016;101759.6;;;;-76
2022/09/02 06:04:18;;;;;;;;;;;;;;;15.95;49.55566;101753.7;;;;-74
2022/09/02 06:07:42;;;;;;;3.4;0.9;;;;;;;;;;;;;-74
2022/09/02 06:09:20;;;;;;;;;;;;;;;16.08;49.45801;101743;;;;-75
2022/09/02 06:14:19;;;;;;;;;;;;;;;16.21;49.06543;101744.7;;;;-75
2022/09/02 06:19:17;;;;;;;;;;;;;;;16.3;49.24512;101743.2;;;;-75
2022/09/02 06:24:17;;;;;;;;;;;;;;;16.42;49.02051;101742.7;;;;-76
2022/09/02 06:29:17;;;;;;;;;;;;;;;16.55;48.64941;101740.6;;;;-74
2022/09/02 06:34:18;;;;;;;;;;;;;;;16.68;48.55078;101739.5;;;;-75
2022/09/02 06:37:44;;;;;;;2.6;0.9;;;;;;;;;;;;;-73
2022/09/02 06:39:20;;;;;;;;;;;;;;;16.8;48.22461;101739.7;;;;-74
2022/09/02 06:44:20;;;;;;;;;;;;;;;16.94;48.35156;101740.4;;;;-74
2022/09/02 06:49:18;;;;;;;;;;;;;;;17.08;47.97168;101735;;;;-74
2022/09/02 06:54:19;;;;;;;;;;;;;;;17.19;47.88086;101736;;;;-75
2022/09/02 06:59:17;;;;;;;;;;;;;;;17.33;48.13477;101732.8;;;;-76
2022/09/02 07:07:48;;;;;;;1.3;0.8;;;;;;;;;;;;;-73
2022/09/02 07:09:19;;;;;;;;;;;;;;;17.75;47.25977;101733.7;;;;-75
2022/09/02 07:14:18;;;;;;;;;;;;;;;17.87;47.2168;101727.5;;;;-73
2022/09/02 07:19:17;;;;;;;;;;;;;;;18.05;46.84863;101732.4;;;;-75
2022/09/02 07:24:18;;;;;;;;;;;;;;;18.23;46.62891;101733.4;;;;-75
2022/09/02 07:29:19;;;;;;;;;;;;;;;18.53;45.98828;101730.8;;;;-77
2022/09/02 07:34:17;;;;;;;;;;;;;;;18.86;45.35059;101729.4;;;;-75
2022/09/02 07:37:49;;;;;;;3.6;0.9;;;;;;;;;;;;;-75
2022/09/02 07:39:18;;;;;;;;;;;;;;;19.11;44.94238;101723.5;;;;-74
2022/09/02 07:44:18;;;;;;;;;;;;;;;19.25;44.75195;101721.2;;;;-75
2022/09/02 07:49:20;;;;;;;;;;;;;;;19.42;44.58691;101716.9;;;;-75
2022/09/02 07:54:17;;;;;;;;;;;;;;;19.74;44.17383;101714.8;;;;-70
2022/09/02 07:59:18;;;;;;;;;;;;;;;20.14;43.74512;101711.7;;;;-75
2022/09/02 08:04:18;;;;;;;;;;;;;;;20.48;43.17188;101703.3;;;;-75
2022/09/02 08:07:51;;;;;;;2.8;0.9;;;;;;;;;;;;;-75
2022/09/02 08:09:17;;;;;;;;;;;;;;;20.83;42.78027;101701.6;;;;-75
2022/09/02 08:14:20;;;;;;;;;;;;;;;21.26;42.2959;101697.3;;;;-74
2022/09/02 08:19:17;;;;;;;;;;;;;;;21.73;41.54785;101701.4;;;;-74
2022/09/02 08:24:17;;;;;;;;;;;;;;;22.09;40.88086;101694.9;;;;-75
2022/09/02 08:29:17;;;;;;;;;;;;;;;22.36;40.75488;101696.5;;;;-75
2022/09/02 08:34:17;;;;;;;;;;;;;;;22.67;40.32324;101697;;;;-77
2022/09/02 08:37:53;;;;;;;1.6;0.9;;;;;;;;;;;;;-75
2022/09/02 08:39:17;;;;;;;;;;;;;;;22.98;39.95996;101693.2;;;;-75
2022/09/02 08:44:22;;;;;;;;;;;;;;;23.32;39.63184;101687.5;;;;-76
2022/09/02 08:49:24;;;;;;;;;;;;;;;23.61;39.08105;101687.7;;;;-75
2022/09/02 08:54:21;;;;;;;;;;;;;;;23.9;38.75977;101688.5;;;;-74
2022/09/02 08:59:18;;;;;;;;;;;;;;;24.17;38.4834;101684.6;;;;-75
2022/09/02 09:04:21;;;;;;;;;;;;;;;24.35;38.25586;101679.5;;;;-76
2022/09/02 09:08:03;;;;;;;3.1;1.1;;;;;;;;;;;;;-74
2022/09/02 09:09:24;;;;;;;;;;;;;;;24.47;38.19727;101678.3;;;;-75
2022/09/02 09:14:23;;;;;;;;;;;;;;;24.59;38.0918;101680.3;;;;-75
2022/09/02 09:19:19;;;;;;;;;;;;;;;24.7;37.86914;101670.9;;;;-75
2022/09/02 09:24:25;;;;;;;;;;;;;;;24.86;37.65137;101669.3;;;;-75
2022/09/02 09:29:17;;;;;;;;;;;;;;;25.12;37.71973;101660.3;;;;-75
2022/09/02 09:34:18;;;;;;;;;;;;;;;25.31;37.09766;101663.2;;;;-76
2022/09/02 09:38:00;;;;;;;2.7;1;;;;;;;;;;;;;-75
2022/09/02 09:39:24;;;;;;;;;;;;;;;25.4;37.03613;101663.7;;;;-75
2022/09/02 09:44:28;;;;;;;;;;;;;;;25.47;36.63574;101664.5;;;;-74
2022/09/02 09:49:27;;;;;;;;;;;;;;;25.53;36.50098;101656.4;;;;-73
2022/09/02 09:54:20;;;;;;;;;;;;;;;25.67;36.69824;101657;;;;-76
2022/09/02 09:59:27;;;;;;;;;;;;;;;25.87;36.29688;101654.3;;;;-76
2022/09/02 10:04:27;;;;;;;;;;;;;;;26.18;36.25293;101651;;;;-75
2022/09/02 10:08:04;;;;;;;1.9;1;;;;;;;;;;;;;-75
2022/09/02 10:09:34;;;;;;;;;;;;;;;26.45;35.72852;101653.1;;;;-75
2022/09/02 10:14:18;;;;;;;;;;;;;;;26.66;35.2207;101653.8;;;;-76
2022/09/02 10:19:25;;;;;;;;;;;;;;;26.95;35.2207;101644.1;;;;-75
2022/09/02 10:24:26;;;;;;;;;;;;;;;27.27;34.93164;101643.6;;;;-76
2022/09/02 10:29:35;;;;;;;;;;;;;;;27.57;34.59375;101631.3;;;;-76
2022/09/02 10:34:21;;;;;;;;;;;;;;;27.84;34.46289;101625.6;;;;-77
2022/09/02 10:38:09;;;;;;;3.2;1;;;;;;;;;;;;;-76
2022/09/02 10:39:25;;;;;;;;;;;;;;;28.08;34.05957;101620.2;;;;-76
2022/09/02 10:44:23;;;;;;;;;;;;;;;28.32;34.01953;101618.3;;;;-76
2022/09/02 10:49:24;;;;;;;;;;;;;;;28.55;33.52344;101617.6;;;;-76
2022/09/02 10:54:23;;;;;;;;;;;;;;;28.81;33.50781;101605.1;;;;-76
2022/09/02 10:59:21;;;;;;;;;;;;;;;29.08;33.25781;101607.8;;;;-77
2022/09/02 11:04:22;;;;;;;;;;;;;;;29.23;33.03516;101608.9;;;;-78
2022/09/02 11:08:15;;;;;;;3.1;1.3;;;;;;;;;;;;;-76
2022/09/02 11:09:27;;;;;;;;;;;;;;;29.38;32.78809;101604.5;;;;-77
2022/09/02 11:14:23;;;;;;;;;;;;;;;29.54;32.91699;101599.5;;;;-77
2022/09/02 11:19:21;;;;;;;;;;;;;;;29.69;32.97559;101594.6;;;;-76
2022/09/02 11:24:19;;;;;;;;;;;;;;;29.82;32.63281;101596.4;;;;-76
2022/09/02 11:29:20;;;;;;;;;;;;;;;29.91;32.60449;101592.7;;;;-76
2022/09/02 11:34:33;;;;;;;;;;;;;;;30.07;32.82617;101587.8;;;;-77
2022/09/02 11:38:21;;;;;;;6.2;1.5;;;;;;;;;;;;;-76
2022/09/02 11:39:21;;;;;;;;;;;;;;;30.23;32.22852;101586.2;;;;-76
2022/09/02 11:44:28;;;;;;;;;;;;;;;30.31;32.17578;101576.6;;;;-78
2022/09/02 11:49:32;;;;;;;;;;;;;;;30.45;32.36133;101573.3;;;;-75
2022/09/02 11:54:19;;;;;;;;;;;;;;;30.62;31.70313;101564.3;;;;-76
2022/09/02 11:59:27;;;;;;;;;;;;;;;30.79;32.23242;101557.8;;;;-77
2022/09/02 12:04:25;;;;;;;;;;;;;;;31.07;32.0293;101550.3;;;;-76
2022/09/02 12:08:33;;;;;;;5.5;1.4;;;;;;;;;;;;;-76
2022/09/02 12:09:28;;;;;;;;;;;;;;;31.26;31.06641;101546.9;;;;-76
2022/09/02 12:14:28;;;;;;;;;;;;;;;31.3;31.08008;101548.2;;;;-77
2022/09/02 12:19:28;;;;;;;;;;;;;;;31.42;30.77051;101541.8;;;;-76
2022/09/02 12:24:29;;;;;;;;;;;;;;;31.53;31.40234;101537.9;;;;-75
2022/09/02 12:29:27;;;;;;;;;;;;;;;31.68;31.08301;101529.3;;;;-75
2022/09/02 12:34:28;;;;;;;;;;;;;;;31.83;30.63379;101529.2;;;;-76
2022/09/02 12:38:41;;;;;;;2.9;1.5;;;;;;;;;;;;;-75
2022/09/02 12:39:29;;;;;;;;;;;;;;;31.9;31.0166;101521.3;;;;-76
2022/09/02 12:44:24;;;;;;;;;;;;;;;31.99;30.85645;101520.8;;;;-77
2022/09/02 12:49:26;;;;;;;;;;;;;;;32.07;30.46191;101513;;;;-75
2022/09/02 12:54:18;;;;;;;;;;;;;;;32.21;31.13086;101508.6;;;;-74
2022/09/02 12:59:24;;;;;;;;;;;;;;;32.37;30.35156;101502.2;;;;-76
2022/09/02 13:04:26;;;;;;;;;;;;;;;32.48;30.42969;101497.7;;;;-76
2022/09/02 13:08:47;;;;;;;4.6;1.5;;;;;;;;;;;;;-78
2022/09/02 13:09:35;;;;;;;;;;;;;;;32.54;30.58789;101489.1;;;;-76
2022/09/02 13:14:38;;;;;;;;;;;;;;;32.57;30.55371;101484.4;;;;-76
2022/09/02 13:19:33;;;;;;;;;;;;;;;32.67;30.35938;101483.6;;;;-76
2022/09/02 13:24:33;;;;;;;;;;;;;;;32.81;30.6875;101479.4;;;;-75
2022/09/02 13:29:30;;;;;;;;;;;;;;;32.98;30.39258;101482.3;;;;-77
2022/09/02 13:34:18;;;;;;;;;;;;;;;33.06;30.75195;101477;;;;-77
2022/09/02 13:38:35;;;;;;;4.4;1.7;;;;;;;;;;;;;-75
2022/09/02 13:39:21;;;;;;;;;;;;;;;33.17;30.19238;101469.5;;;;-75
2022/09/02 13:44:23;;;;;;;;;;;;;;;33.26;29.25293;101465.3;;;;-76
2022/09/02 13:49:25;;;;;;;;;;;;;;;33.23;29.27441;101465.6;;;;-76
2022/09/02 13:54:18;;;;;;;;;;;;;;;33.23;29.33301;101458.5;;;;-73
2022/09/02 13:59:27;;;;;;;;;;;;;;;33.29;30.3418;101440.9;;;;-76
2022/09/02 14:04:19;;;;;;;;;;;;;;;33.43;29.00293;101443.5;;;;-76
2022/09/02 14:08:40;;;;;;;3.9;1.6;;;;;;;;;;;;;-75
2022/09/02 14:09:25;;;;;;;;;;;;;;;33.44;28.49512;101445;;;;-76
2022/09/02 14:14:20;;;;;;;;;;;;;;;33.4;28.87109;101441.8;;;;-75
2022/09/02 14:19:26;;;;;;;;;;;;;;;33.4;28.59961;101441.4;;;;-76
2022/09/02 14:24:19;;;;;;;;;;;;;;;33.43;28.49414;101426.1;;;;-75
2022/09/02 14:29:20;;;;;;;;;;;;;;;33.48;28.58105;101415.8;;;;-74
2022/09/02 14:34:29;;;;;;;;;;;;;;;33.52;28.37012;101414.4;;;;-75
2022/09/02 14:38:56;;;;;;;2.7;1.7;;;;;;;;;;;;;-75
2022/09/02 14:39:20;;;;;;;;;;;;;;;33.57;27.56836;101411.8;;;;-75
2022/09/02 14:44:19;;;;;;;;;;;;;;;33.57;27.28516;101416.9;;;;-76
2022/09/02 14:49:22;;;;;;;;;;;;;;;33.48;27.9541;101406.1;;;;-78
2022/09/02 14:54:27;;;;;;;;;;;;;;;33.43;27.79688;101406.9;;;;-74
2022/09/02 14:59:18;;;;;;;;;;;;;;;33.42;27.59473;101401.7;;;;-75
2022/09/02 15:04:18;;;;;;;;;;;;;;;33.33;27.23438;101395.7;;;;-76
2022/09/02 15:08:50;;;;;;;3.1;1.6;;;;;;;;;;;;;-76
2022/09/02 15:09:18;;;;;;;;;;;;;;;33.27;27.7627;101392;;;;-75
2022/09/02 15:14:17;;;;;;;;;;;;;;;33.19;27.66309;101387.3;;;;-75
2022/09/02 15:19:17;;;;;;;;;;;;;;;33.2;26.94336;101386.8;;;;-76
2022/09/02 15:24:20;;;;;;;;;;;;;;;33.23;26.58984;101386.5;;;;-74
2022/09/02 15:29:17;;;;;;;;;;;;;;;33.17;26.90625;101380.6;;;;-75
2022/09/02 15:34:17;;;;;;;;;;;;;;;33.11;26.75977;101373.8;;;;-74
2022/09/02 15:38:55;;;;;;;3.1;1.6;;;;;;;;;;;;;-79
2022/09/02 15:39:19;;;;;;;;;;;;;;;33.02;26.90918;101370;;;;-75
2022/09/02 15:44:18;;;;;;;;;;;;;;;32.91;26.84277;101367.3;;;;-77
2022/09/02 15:49:20;;;;;;;;;;;;;;;32.67;26.43848;101364.2;;;;-75
2022/09/02 15:54:19;;;;;;;;;;;;;;;32.32;26.6543;101362.3;;;;-75
2022/09/02 15:59:19;;;;;;;;;;;;;;;31.94;26.97461;101356.8;;;;-75
2022/09/02 16:04:18;;;;;;;;;;;;;;;31.65;27.3584;101351.6;;;;-75
2022/09/02 16:09:00;;;;;;;3.1;1.8;;;;;;;;;;;;;-74
2022/09/02 16:09:18;;;;;;;;;;;;;;;31.38;27.33008;101352.7;;;;-75
2022/09/02 16:14:18;;;;;;;;;;;;;;;31.13;27.78613;101339.3;;;;-76
2022/09/02 16:19:17;;;;;;;;;;;;;;;30.79;27.75391;101333.4;;;;-75
2022/09/02 16:24:20;;;;;;;;;;;;;;;30.36;27.92773;101332.9;;;;-74
2022/09/02 16:29:20;;;;;;;;;;;;;;;29.95;28.34863;101324.4;;;;-75
2022/09/02 16:34:19;;;;;;;;;;;;;;;29.63;28.65625;101324.7;;;;-75
2022/09/02 16:39:05;;;;;;;3.3;1.7;;;;;;;;;;;;;-76
2022/09/02 16:39:18;;;;;;;;;;;;;;;29.31;28.84668;101324.1;;;;-74
2022/09/02 16:44:18;;;;;;;;;;;;;;;28.98;28.7793;101318.2;;;;-74
2022/09/02 16:49:19;;;;;;;;;;;;;;;28.74;28.98633;101318.4;;;;-74
2022/09/02 16:54:18;;;;;;;;;;;;;;;28.51;29.06543;101316.1;;;;-75
2022/09/02 16:59:18;;;;;;;;;;;;;;;28.31;29.31055;101312.1;;;;-75
2022/09/02 17:04:17;;;;;;;;;;;;;;;28.13;29.54395;101312.6;;;;-76
2022/09/02 17:09:09;;;;;;;3.3;1.7;;;;;;;;;;;;;-76
2022/09/02 17:09:21;;;;;;;;;;;;;;;27.9;29.71582;101304;;;;-74
2022/09/02 17:14:20;;;;;;;;;;;;;;;27.69;30.05273;101301.3;;;;-77
2022/09/02 17:19:19;;;;;;;;;;;;;;;27.48;30.37695;101299.2;;;;-75
2022/09/02 17:24:18;;;;;;;;;;;;;;;27.25;30.55859;101291.9;;;;-76
2022/09/02 17:29:19;;;;;;;;;;;;;;;27.01;30.8457;101287.3;;;;-75
2022/09/02 17:34:17;;;;;;;;;;;;;;;26.77;31.08594;101294.1;;;;-77
2022/09/02 17:39:14;;;;;;;3.8;1.8;;;;;;;;;;;;;-78
2022/09/02 17:39:23;;;;;;;;;;;;;;;26.49;31.52051;101295.8;;;;-76
2022/09/02 17:44:18;;;;;;;;;;;;;;;26.25;31.77148;101303.2;;;;-75
2022/09/02 17:49:17;;;;;;;;;;;;;;;26.05;31.91992;101302.6;;;;-77
2022/09/02 17:54:18;;;;;;;;;;;;;;;25.82;32.25293;101301;;;;-76
2022/09/02 17:59:21;;;;;;;;;;;;;;;25.62;32.40039;101301.2;;;;-75
2022/09/02 18:04:24;;;;;;;;;;;;;;;25.45;32.59668;101300.1;;;;-77
2022/09/02 18:09:18;;;;;;;3.6;1.9;;;;;;;;;;;;;-75
2022/09/02 18:09:29;;;;;;;;;;;;;;;25.21;32.86914;101295.7;;;;-76
2022/09/02 18:14:20;;;;;;;;;;;;;;;25.01;33.19141;101296.9;;;;-76
2022/09/02 18:19:26;;;;;;;;;;;;;;;24.8;33.44238;101297.6;;;;-74
2022/09/02 18:24:20;;;;;;;;;;;;;;;24.59;33.68164;101296.3;;;;-75
2022/09/02 18:29:24;;;;;;;;;;;;;;;24.38;34.03613;101301.6;;;;-75
2022/09/02 18:34:32;;;;;;;;;;;;;;;24.18;34.24121;101300.5;;;;-75
2022/09/02 18:39:30;;;;;;;;;;;;;;;24;34.51563;101299.2;;;;-75
2022/09/02 18:39:47;;;;;;;2.8;1.9;;;;;;;;;;;;;-75
2022/09/02 18:44:27;;;;;;;;;;;;;;;23.82;34.69824;101307.9;;;;-75
2022/09/02 18:49:18;;;;;;;;;;;;;;;23.62;35.11133;101310;;;;-75
2022/09/02 18:54:21;;;;;;;;;;;;;;;23.44;35.52441;101304.6;;;;-76
2022/09/02 18:59:19;;;;;;;;;;;;;;;23.29;35.63867;101304.6;;;;-74
2022/09/02 19:04:17;;;;;;;;;;;;;;;23.15;35.83594;101304.3;;;;-73
2022/09/02 19:09:19;;;;;;;;;;;;;;;23.05;35.90918;101304;;;;-75
2022/09/02 19:09:28;;;;;;;3.6;2;;;;;;;;;;;;;-75
2022/09/02 19:14:25;;;;;;;;;;;;;;;22.94;36.10742;101304.7;;;;-75
2022/09/02 19:19:20;;;;;;;;;;;;;;;22.81;36.29199;101316.2;;;;-75
2022/09/02 19:24:23;;;;;;;;;;;;;;;22.7;36.27246;101314.3;;;;-75
2022/09/02 19:29:19;;;;;;;;;;;;;;;22.54;36.62793;101313.8;;;;-76
2022/09/02 19:34:18;;;;;;;;;;;;;;;22.4;36.8916;101315.5;;;;-75
2022/09/02 19:39:17;;;;;;;;;;;;;;;22.25;38.15723;101317.6;;;;-74
2022/09/02 19:39:26;;;;;;;5.7;2.1;;;;;;;;;;;;;-74
2022/09/02 19:44:18;;;;;;;;;;;;;;;22.09;38.32813;101317.9;;;;-76
2022/09/02 19:49:18;;;;;;;;;;;;;;;21.98;38.2373;101324.3;;;;-76
2022/09/02 19:54:21;;;;;;;;;;;;;;;21.88;38.40137;101320;;;;-76
2022/09/02 19:59:17;;;;;;;;;;;;;;;21.79;38.53223;101320.5;;;;-76
2022/09/02 20:04:17;;;;;;;;;;;;;;;21.68;38.77441;101322.5;;;;-75
2022/09/02 20:09:20;;;;;;;;;;;;;;;21.58;38.99609;101319.5;;;;-75
2022/09/02 20:09:32;;;;;;;3.4;1.9;;;;;;;;;;;;;-75
2022/09/02 20:14:20;;;;;;;;;;;;;;;21.46;38.98535;101328.9;;;;-74
2022/09/02 20:19:17;;;;;;;;;;;;;;;21.36;39.27637;101332.5;;;;-76
2022/09/02 20:24:18;;;;;;;;;;;;;;;21.29;39.4873;101333.6;;;;-75
2022/09/02 20:29:23;;;;;;;;;;;;;;;21.22;39.66504;101330.5;;;;-75
2022/09/02 20:34:26;;;;;;;;;;;;;;;21.18;39.59277;101330.7;;;;-74
2022/09/02 20:39:28;;;;;;;;;;;;;;;21.16;39.83105;101329.8;;;;-76
2022/09/02 20:39:47;;;;;;;4.7;2.1;;;;;;;;;;;;;-76
2022/09/02 20:44:25;;;;;;;;;;;;;;;21.12;39.83984;101330.8;;;;-76
2022/09/02 20:49:24;;;;;;;;;;;;;;;21.09;40.00879;101323.9;;;;-75
2022/09/02 20:54:25;;;;;;;;;;;;;;;21.08;40.03027;101325.4;;;;-77
2022/09/02 20:59:21;;;;;;;;;;;;;;;21.03;39.85449;101318.5;;;;-70
2022/09/02 21:04:23;;;;;;;;;;;;;;;21.02;39.95703;101319;;;;-76
2022/09/02 21:09:22;;;;;;;;;;;;;;;20.99;39.78223;101317.8;;;;-76
2022/09/02 21:09:37;;;;;;;3.8;2.1;;;;;;;;;;;;;-74
2022/09/02 21:14:19;;;;;;;;;;;;;;;20.96;39.98633;101312.4;;;;-75
2022/09/02 21:19:20;;;;;;;;;;;;;;;20.91;39.9707;101313.3;;;;-74
2022/09/02 21:24:19;;;;;;;;;;;;;;;20.88;40.12793;101312.5;;;;-75
2022/09/02 21:29:22;;;;;;;;;;;;;;;20.84;40.1123;101317.2;;;;-75
2022/09/02 21:34:20;;;;;;;;;;;;;;;20.79;40.28027;101313.8;;;;-75
2022/09/02 21:39:19;;;;;;;;;;;;;;;20.73;40.40137;101317;;;;-76
2022/09/02 21:39:39;;;;;;;5.9;1.9;;;;;;;;;;;;;-74
2022/09/02 21:44:22;;;;;;;;;;;;;;;20.67;40.6709;101315.5;;;;-76
2022/09/02 21:49:31;;;;;;;;;;;;;;;20.6;40.73242;101310;;;;-75
2022/09/02 21:54:23;;;;;;;;;;;;;;;20.54;40.85352;101313.5;;;;-75
2022/09/02 21:59:25;;;;;;;;;;;;;;;20.47;41.13281;101311.7;;;;-75
2022/09/02 22:04:24;;;;;;;;;;;;;;;20.38;41.25098;101311.5;;;;-77
2022/09/02 22:09:19;;;;;;;;;;;;;;;20.31;41.2666;101306;;;;-77
2022/09/02 22:09:40;;;;;;;3.9;1.8;;;;;;;;;;;;;-75
2022/09/02 22:14:24;;;;;;;;;;;;;;;20.23;41.66016;101303.9;;;;-76
2022/09/02 22:19:17;;;;;;;;;;;;;;;20.14;41.73145;101301.3;;;;-76
2022/09/02 22:24:17;;;;;;;;;;;;;;;20.05;42.00879;101294;;;;-75
2022/09/02 22:29:21;;;;;;;;;;;;;;;19.97;41.85352;101291.5;;;;-76
2022/09/02 22:34:22;;;;;;;;;;;;;;;19.86;42.08203;101293.4;;;;-76
2022/09/02 22:39:17;;;;;;;;;;;;;;;19.78;42.54297;101289.1;;;;-76
2022/09/02 22:39:46;;;;;;;5.5;2.1;;;;;;;;;;;;;-76
2022/09/02 22:44:22;;;;;;;;;;;;;;;19.67;42.56738;101285.2;;;;-76
2022/09/02 22:54:20;;;;;;;;;;;;;;;19.54;42.48633;101286.5;;;;-75
2022/09/02 22:59:28;;;;;;;;;;;;;;;19.47;42.74219;101285.3;;;;-76
2022/09/02 23:04:24;;;;;;;;;;;;;;;19.37;43.30371;101278.7;;;;-76
2022/09/02 23:09:17;;;;;;;;;;;;;;;19.29;43.14844;101277.4;;;;-76
2022/09/02 23:09:45;;;;;;;4;2;;;;;;;;;;;;;-76
2022/09/02 23:14:25;;;;;;;;;;;;;;;19.25;43.12109;101278.8;;;;-74
2022/09/02 23:19:22;;;;;;;;;;;;;;;19.18;43.09082;101277.4;;;;-75
2022/09/02 23:24:20;;;;;;;;;;;;;;;19.1;42.96875;101278.1;;;;-75
2022/09/02 23:29:25;;;;;;;;;;;;;;;19.04;43.55664;101275.1;;;;-75
2022/09/02 23:34:28;;;;;;;;;;;;;;;18.97;43.32129;101269.5;;;;-75
2022/09/02 23:39:23;;;;;;;;;;;;;;;18.91;43.81836;101269.2;;;;-75
2022/09/02 23:39:54;;;;;;;3;1.8;;;;;;;;;;;;;-76
2022/09/02 23:44:17;;;;;;;;;;;;;;;18.84;44.10645;101267.8;;;;-75
2022/09/02 23:49:23;;;;;;;;;;;;;;;18.79;44.02148;101260.8;;;;-75
2022/09/02 23:54:28;;;;;;;;;;;;;;;18.74;44.04004;101259;;;;-76
2022/09/02 23:59:24;;;;;;;;;;;;;;;18.69;44.01172;101256.9;;;;-75
